This is the latest recevied weather packets stored in our database for station/object kj4yre. If no packets are shown the sender has not sent any weather packets the latest 10 day(s).
| Time | Temp. | Humidity | Pressure | Rain* | Wind** | Luminosity | Snow |
|---|---|---|---|---|---|---|---|
| 1777432936 | 9.44° C | 92% | 1019.6 hPa | 0 mm | - | - | - |
| 1777432336 | 10° C | 90% | 1019.8 hPa | 0 mm | - | - | - |
| 1777430837 | 10.56° C | 89% | 1019.1 hPa | 0 mm | - | - | - |
| 1777430536 | 10.56° C | 88% | 1018.9 hPa | 0 mm | - | - | - |
| 1777429335 | 10.56° C | 88% | 1019 hPa | 0 mm | - | - | - |
| 1777429036 | 10.56° C | 87% | 1019.2 hPa | 0 mm | - | - | - |
| 1777428737 | 10.56° C | 88% | 1019.3 hPa | 0 mm | - | - | - |
| 1777426635 | 11.67° C | 81% | 1019.6 hPa | 0 mm | - | - | - |
| 1777425136 | 12.22° C | 78% | 1019 hPa | 0 mm | - | - | - |
| 1777420037 | 15° C | 71% | 1018.9 hPa | 0 mm | - | - | - |
| 1777418236 | 16.67° C | 68% | 1019 hPa | 0 mm | - | - | - |
| 1777417636 | 17.78° C | 67% | 1018.7 hPa | 0 mm | - | - | - |
| 1777416735 | 19.44° C | 59% | 1018.3 hPa | 0 mm | - | - | - |
| 1777416135 | 20.56° C | 55% | 1018.1 hPa | 0 mm | - | - | - |
| 1777412834 | 21.67° C | 51% | 1018 hPa | 0 mm | - | - | - |
| 1777412535 | 21.67° C | 52% | 1018.1 hPa | 0 mm | - | - | - |
| 1777409235 | 21.11° C | 53% | 1018.7 hPa | 0 mm | - | - | - |
| 1777408637 | 20° C | 55% | 1018.9 hPa | 0 mm | - | - | - |
| 1777407435 | 18.89° C | 56% | 1019.5 hPa | 0 mm | - | - | - |
| 1777406235 | 18.89° C | 56% | 1019.8 hPa | 0 mm | - | - | - |
| 1777405936 | 19.44° C | 56% | 1019.8 hPa | 0 mm | - | - | - |
| 1777403235 | 20.56° C | 49% | 1019.8 hPa | 0 mm | - | - | - |
| 1777402936 | 20° C | 50% | 1019.9 hPa | 0 mm | - | - | - |
| 1777399936 | 19.44° C | 56% | 1020.6 hPa | 0 mm | - | - | - |
| 1777397836 | 17.22° C | 66% | 1021.5 hPa | 0 mm | - | - | - |
* Rain latest hour (hover to see other rain measurements)
** Current wind speed in m/s (hover to see current wind gust speed)